TKJ3277 LTCV-LTFJ
Flight info
| Callsign | TKJ3277 |
|---|---|
| Flight time | 1h 46m |
| Altitude | 34000 |
| Route | ULSAB UG8 GEM DCT NEGBU UT329 TOKER |
| Aircraft | A21N/M-SDE3FGHIRWY/LB1 |
Departure
| Time | 2026-04-29 07:32 |
|---|---|
| Airport | Şırnak Şerafettin Elçi Airport (LTCV) |
Arrival
| Time | 2026-04-29 09:18 |
|---|---|
| Airport | Istanbul Sabiha Gökçen International Airport (LTFJ) |
| Time | Latitude | Longitude | Altitude | Speed | Heading |
|---|---|---|---|---|---|
| 2026-04-29 07:13 | 37.36115 | 42.05848 | 2056 ft | 0 kts | 255° |
| 2026-04-29 07:21 | 37.36115 | 42.05849 | 2064 ft | 0 kts | 255° |
| 2026-04-29 07:21 | 37.36118 | 42.05864 | 2064 ft | 3 kts | 255° |
| 2026-04-29 07:21 | 37.36125 | 42.05896 | 2064 ft | 3 kts | 255° |
| 2026-04-29 07:22 | 37.36126 | 42.05927 | 2063 ft | 3 kts | 290° |
| 2026-04-29 07:22 | 37.36110 | 42.05946 | 2063 ft | 3 kts | 341° |
| 2026-04-29 07:22 | 37.36098 | 42.05949 | 2064 ft | 0 kts | 2° |
| 2026-04-29 07:25 | 37.36107 | 42.05949 | 2063 ft | 2 kts | 358° |
| 2026-04-29 07:25 | 37.36128 | 42.05940 | 2063 ft | 4 kts | 330° |
| 2026-04-29 07:25 | 37.36141 | 42.05928 | 2063 ft | 0 kts | 319° |
| 2026-04-29 07:26 | 37.36165 | 42.05904 | 2059 ft | 9 kts | 324° |
| 2026-04-29 07:26 | 37.36239 | 42.05908 | 2056 ft | 12 kts | 21° |
| 2026-04-29 07:26 | 37.36321 | 42.05959 | 2054 ft | 13 kts | 26° |
| 2026-04-29 07:26 | 37.36411 | 42.05969 | 2054 ft | 13 kts | 323° |
| 2026-04-29 07:27 | 37.36460 | 42.05871 | 2055 ft | 12 kts | 295° |
| 2026-04-29 07:27 | 37.36496 | 42.05773 | 2056 ft | 11 kts | 295° |
| 2026-04-29 07:27 | 37.36531 | 42.05682 | 2057 ft | 11 kts | 295° |
| 2026-04-29 07:27 | 37.36563 | 42.05597 | 2058 ft | 10 kts | 296° |
| 2026-04-29 07:28 | 37.36594 | 42.05518 | 2059 ft | 9 kts | 296° |
| 2026-04-29 07:28 | 37.36623 | 42.05444 | 2060 ft | 9 kts | 296° |
| 2026-04-29 07:28 | 37.36652 | 42.05366 | 2061 ft | 10 kts | 295° |
| 2026-04-29 07:28 | 37.36685 | 42.05278 | 2061 ft | 11 kts | 295° |
| 2026-04-29 07:29 | 37.36722 | 42.05181 | 2061 ft | 12 kts | 296° |
| 2026-04-29 07:29 | 37.36764 | 42.05072 | 2060 ft | 14 kts | 296° |
| 2026-04-29 07:29 | 37.36812 | 42.04948 | 2058 ft | 16 kts | 295° |
| 2026-04-29 07:29 | 37.36866 | 42.04805 | 2056 ft | 19 kts | 295° |
| 2026-04-29 07:30 | 37.36925 | 42.04646 | 2053 ft | 20 kts | 296° |
| 2026-04-29 07:30 | 37.36987 | 42.04486 | 2052 ft | 19 kts | 292° |
| 2026-04-29 07:30 | 37.37006 | 42.04337 | 2055 ft | 8 kts | 322° |
| 2026-04-29 07:31 | 37.36974 | 42.04518 | 2052 ft | 29 kts | 116° |
| 2026-04-29 07:31 | 37.36770 | 42.05049 | 2060 ft | 101 kts | 115° |
| 2026-04-29 07:31 | 37.36369 | 42.06095 | 2054 ft | 161 kts | 115° |
| 2026-04-29 07:31 | 37.35845 | 42.07476 | 2356 ft | 181 kts | 115° |
| 2026-04-29 07:32 | 37.35327 | 42.08847 | 3140 ft | 172 kts | 115° |
| 2026-04-29 07:32 | 37.34839 | 42.10194 | 3832 ft | 169 kts | 104° |
| 2026-04-29 07:32 | 37.34878 | 42.11646 | 4301 ft | 172 kts | 69° |
| 2026-04-29 07:32 | 37.35568 | 42.12916 | 4623 ft | 185 kts | 39° |
| 2026-04-29 07:33 | 37.36779 | 42.13633 | 4933 ft | 202 kts | 8° |
| 2026-04-29 07:33 | 37.38228 | 42.13395 | 5261 ft | 222 kts | 334° |
| 2026-04-29 07:33 | 37.39397 | 42.12008 | 5587 ft | 245 kts | 295° |
| 2026-04-29 07:33 | 37.39663 | 42.09829 | 5998 ft | 264 kts | 259° |
| 2026-04-29 07:34 | 37.38936 | 42.07683 | 6477 ft | 279 kts | 238° |
| 2026-04-29 07:34 | 37.38023 | 42.05502 | 7162 ft | 284 kts | 256° |
| 2026-04-29 07:34 | 37.38032 | 42.03050 | 7909 ft | 282 kts | 290° |
| 2026-04-29 07:34 | 37.39102 | 42.01022 | 8684 ft | 280 kts | 322° |
| 2026-04-29 07:35 | 37.40798 | 41.99870 | 9456 ft | 279 kts | 336° |
| 2026-04-29 07:35 | 37.42562 | 41.98752 | 10173 ft | 283 kts | 330° |
| 2026-04-29 07:35 | 37.44246 | 41.97405 | 10646 ft | 295 kts | 325° |
| 2026-04-29 07:35 | 37.45933 | 41.95812 | 10960 ft | 312 kts | 322° |
| 2026-04-29 07:36 | 37.47642 | 41.94019 | 11258 ft | 329 kts | 320° |
| 2026-04-29 07:36 | 37.49416 | 41.92041 | 11561 ft | 346 kts | 318° |
| 2026-04-29 07:36 | 37.51040 | 41.90168 | 11938 ft | 356 kts | 317° |
| 2026-04-29 07:36 | 37.52867 | 41.88020 | 12577 ft | 360 kts | 317° |
| 2026-04-29 07:37 | 37.54685 | 41.85858 | 13243 ft | 362 kts | 316° |
| 2026-04-29 07:37 | 37.56513 | 41.83670 | 13853 ft | 366 kts | 316° |
| 2026-04-29 07:37 | 37.58358 | 41.81453 | 14450 ft | 370 kts | 316° |
| 2026-04-29 07:37 | 37.60217 | 41.79213 | 15068 ft | 372 kts | 316° |
| 2026-04-29 07:38 | 37.62084 | 41.76958 | 15652 ft | 376 kts | 316° |
| 2026-04-29 07:38 | 37.63966 | 41.74683 | 16232 ft | 379 kts | 316° |
| 2026-04-29 07:38 | 37.65885 | 41.72360 | 16802 ft | 382 kts | 316° |
| 2026-04-29 07:38 | 37.67803 | 41.70036 | 17353 ft | 385 kts | 315° |
| 2026-04-29 07:39 | 37.69727 | 41.67703 | 17909 ft | 388 kts | 315° |
| 2026-04-29 07:39 | 37.71695 | 41.65314 | 18438 ft | 391 kts | 315° |
| 2026-04-29 07:39 | 37.73664 | 41.62921 | 18953 ft | 395 kts | 315° |
| 2026-04-29 07:39 | 37.75639 | 41.60519 | 19467 ft | 398 kts | 315° |
| 2026-04-29 07:40 | 37.77629 | 41.58098 | 19966 ft | 401 kts | 315° |
| 2026-04-29 07:40 | 37.79632 | 41.55658 | 20453 ft | 404 kts | 315° |
| 2026-04-29 07:40 | 37.81684 | 41.53157 | 20933 ft | 407 kts | 315° |
| 2026-04-29 07:40 | 37.83723 | 41.50670 | 21396 ft | 410 kts | 315° |
| 2026-04-29 07:41 | 37.85774 | 41.48167 | 21860 ft | 413 kts | 315° |
| 2026-04-29 07:41 | 37.87837 | 41.45646 | 22317 ft | 416 kts | 315° |
| 2026-04-29 07:41 | 37.89907 | 41.43113 | 22749 ft | 418 kts | 315° |
| 2026-04-29 07:41 | 37.92028 | 41.40516 | 23188 ft | 421 kts | 315° |
| 2026-04-29 07:42 | 37.94125 | 41.37949 | 23617 ft | 423 kts | 315° |
| 2026-04-29 07:42 | 37.96246 | 41.35347 | 24034 ft | 426 kts | 315° |
| 2026-04-29 07:42 | 37.98380 | 41.32727 | 24427 ft | 428 kts | 314° |
| 2026-04-29 07:42 | 38.00515 | 41.30105 | 24820 ft | 430 kts | 314° |
| 2026-04-29 07:43 | 38.02662 | 41.27466 | 25198 ft | 433 kts | 314° |
| 2026-04-29 07:43 | 38.04818 | 41.24810 | 25555 ft | 435 kts | 314° |
| 2026-04-29 07:43 | 38.07013 | 41.22105 | 25910 ft | 437 kts | 314° |
| 2026-04-29 07:43 | 38.09187 | 41.19425 | 26250 ft | 439 kts | 314° |
| 2026-04-29 07:44 | 38.11379 | 41.16703 | 26564 ft | 441 kts | 313° |
| 2026-04-29 07:44 | 38.13355 | 41.13736 | 26863 ft | 442 kts | 304° |
| 2026-04-29 07:44 | 38.14984 | 41.10455 | 27175 ft | 442 kts | 297° |
| 2026-04-29 07:44 | 38.16263 | 41.06931 | 27460 ft | 443 kts | 291° |
| 2026-04-29 07:45 | 38.17404 | 41.03303 | 27795 ft | 444 kts | 290° |
| 2026-04-29 07:45 | 38.18520 | 40.99657 | 28208 ft | 442 kts | 290° |
| 2026-04-29 07:45 | 38.19630 | 40.96035 | 28642 ft | 440 kts | 290° |
| 2026-04-29 07:45 | 38.20739 | 40.92427 | 29057 ft | 439 kts | 290° |
| 2026-04-29 07:46 | 38.21859 | 40.88799 | 29458 ft | 437 kts | 290° |
| 2026-04-29 07:46 | 38.22967 | 40.85213 | 29824 ft | 436 kts | 290° |
| 2026-04-29 07:46 | 38.24075 | 40.81638 | 30168 ft | 436 kts | 290° |
| 2026-04-29 07:46 | 38.25167 | 40.78062 | 30516 ft | 435 kts | 290° |
| 2026-04-29 07:47 | 38.26239 | 40.74508 | 30871 ft | 433 kts | 290° |
| 2026-04-29 07:47 | 38.27306 | 40.70958 | 31200 ft | 432 kts | 290° |
| 2026-04-29 07:47 | 38.28387 | 40.67357 | 31524 ft | 430 kts | 290° |
| 2026-04-29 07:47 | 38.29444 | 40.63824 | 31824 ft | 429 kts | 290° |
| 2026-04-29 07:48 | 38.30496 | 40.60307 | 32102 ft | 429 kts | 290° |
| 2026-04-29 07:48 | 38.31547 | 40.56785 | 32351 ft | 429 kts | 289° |
| 2026-04-29 07:48 | 38.32614 | 40.53211 | 32555 ft | 430 kts | 289° |
| 2026-04-29 07:48 | 38.33668 | 40.49674 | 32735 ft | 431 kts | 289° |
| 2026-04-29 07:49 | 38.34720 | 40.46135 | 32931 ft | 431 kts | 289° |
| 2026-04-29 07:49 | 38.35788 | 40.42541 | 33123 ft | 432 kts | 289° |
| 2026-04-29 07:49 | 38.36846 | 40.38976 | 33295 ft | 432 kts | 289° |
| 2026-04-29 07:49 | 38.37901 | 40.35418 | 33467 ft | 433 kts | 289° |
| 2026-04-29 07:50 | 38.38976 | 40.31788 | 33653 ft | 433 kts | 289° |
| 2026-04-29 07:50 | 38.40029 | 40.28225 | 33832 ft | 434 kts | 289° |
| 2026-04-29 07:50 | 38.41084 | 40.24654 | 33974 ft | 434 kts | 289° |
| 2026-04-29 07:50 | 38.42142 | 40.21061 | 33977 ft | 435 kts | 289° |
| 2026-04-29 07:51 | 38.44267 | 40.13841 | 33985 ft | 434 kts | 289° |
| 2026-04-29 07:51 | 38.46379 | 40.06641 | 33990 ft | 434 kts | 289° |
| 2026-04-29 07:52 | 38.48476 | 39.99479 | 33993 ft | 434 kts | 289° |
| 2026-04-29 07:52 | 38.50582 | 39.92263 | 33994 ft | 434 kts | 289° |
| 2026-04-29 07:53 | 38.52684 | 39.85039 | 33995 ft | 434 kts | 289° |
| 2026-04-29 07:53 | 38.54769 | 39.77852 | 33998 ft | 434 kts | 289° |
| 2026-04-29 07:54 | 38.56861 | 39.70626 | 34008 ft | 433 kts | 289° |
| 2026-04-29 07:54 | 38.58928 | 39.63461 | 34010 ft | 431 kts | 289° |
| 2026-04-29 07:55 | 38.60988 | 39.56294 | 34017 ft | 431 kts | 289° |
| 2026-04-29 07:55 | 38.63061 | 39.49099 | 34017 ft | 431 kts | 289° |
| 2026-04-29 07:56 | 38.65155 | 39.41960 | 34025 ft | 431 kts | 289° |
| 2026-04-29 07:56 | 38.67247 | 39.34799 | 34024 ft | 431 kts | 289° |
| 2026-04-29 07:57 | 38.69338 | 39.27604 | 34019 ft | 431 kts | 288° |
| 2026-04-29 07:57 | 38.71083 | 39.20302 | 34026 ft | 429 kts | 283° |
| 2026-04-29 07:58 | 38.72283 | 39.12865 | 34027 ft | 429 kts | 280° |
| 2026-04-29 07:58 | 38.73387 | 39.05413 | 34024 ft | 428 kts | 280° |
| 2026-04-29 07:59 | 38.74493 | 38.97920 | 34023 ft | 428 kts | 280° |
| 2026-04-29 07:59 | 38.75590 | 38.90476 | 34029 ft | 427 kts | 280° |
| 2026-04-29 08:00 | 38.76717 | 38.83015 | 34040 ft | 428 kts | 280° |
| 2026-04-29 08:00 | 38.77852 | 38.75518 | 34044 ft | 428 kts | 280° |
| 2026-04-29 08:01 | 38.78969 | 38.68078 | 34046 ft | 428 kts | 281° |
| 2026-04-29 08:01 | 38.80087 | 38.60588 | 34047 ft | 428 kts | 281° |
| 2026-04-29 08:02 | 38.81194 | 38.53144 | 34037 ft | 428 kts | 281° |
| 2026-04-29 08:02 | 38.82303 | 38.45644 | 34036 ft | 428 kts | 281° |
| 2026-04-29 08:03 | 38.83401 | 38.38179 | 34062 ft | 427 kts | 281° |
| 2026-04-29 08:03 | 38.84491 | 38.30727 | 34077 ft | 426 kts | 280° |
| 2026-04-29 08:04 | 38.85580 | 38.23243 | 34072 ft | 427 kts | 280° |
| 2026-04-29 08:04 | 38.86659 | 38.15803 | 34086 ft | 427 kts | 280° |
| 2026-04-29 08:05 | 38.87742 | 38.08305 | 34086 ft | 428 kts | 280° |
| 2026-04-29 08:05 | 38.88815 | 38.00831 | 34093 ft | 428 kts | 280° |
| 2026-04-29 08:06 | 38.89891 | 37.93305 | 34107 ft | 428 kts | 280° |
| 2026-04-29 08:06 | 38.90955 | 37.85822 | 34104 ft | 428 kts | 281° |
| 2026-04-29 08:07 | 38.92014 | 37.78347 | 34102 ft | 427 kts | 281° |
| 2026-04-29 08:07 | 38.93065 | 37.70880 | 34109 ft | 427 kts | 281° |
| 2026-04-29 08:08 | 38.94121 | 37.63357 | 34107 ft | 427 kts | 281° |
| 2026-04-29 08:08 | 38.95169 | 37.55850 | 34104 ft | 427 kts | 281° |
| 2026-04-29 08:09 | 38.96204 | 37.48401 | 34101 ft | 427 kts | 281° |
| 2026-04-29 08:09 | 38.97241 | 37.40886 | 34106 ft | 428 kts | 281° |
| 2026-04-29 08:10 | 38.98277 | 37.33347 | 34109 ft | 428 kts | 280° |
| 2026-04-29 08:10 | 38.99300 | 37.25867 | 34104 ft | 428 kts | 281° |
| 2026-04-29 08:11 | 39.00326 | 37.18333 | 34105 ft | 429 kts | 281° |
| 2026-04-29 08:11 | 39.01348 | 37.10791 | 34108 ft | 429 kts | 281° |
| 2026-04-29 08:12 | 39.02364 | 37.03253 | 34106 ft | 429 kts | 281° |
| 2026-04-29 08:12 | 39.03373 | 36.95734 | 34105 ft | 429 kts | 281° |
| 2026-04-29 08:13 | 39.04373 | 36.88229 | 34104 ft | 428 kts | 281° |
| 2026-04-29 08:13 | 39.05375 | 36.80679 | 34103 ft | 429 kts | 281° |
| 2026-04-29 08:14 | 39.06372 | 36.73129 | 34104 ft | 429 kts | 281° |
| 2026-04-29 08:14 | 39.07359 | 36.65616 | 34102 ft | 428 kts | 281° |
| 2026-04-29 08:15 | 39.08344 | 36.58076 | 34099 ft | 428 kts | 281° |
| 2026-04-29 08:15 | 39.09323 | 36.50540 | 34098 ft | 428 kts | 281° |
| 2026-04-29 08:16 | 39.10295 | 36.43026 | 34097 ft | 427 kts | 281° |
| 2026-04-29 08:16 | 39.11259 | 36.35520 | 34092 ft | 427 kts | 281° |
| 2026-04-29 08:17 | 39.12223 | 36.27970 | 34091 ft | 427 kts | 280° |
| 2026-04-29 08:17 | 39.13181 | 36.20423 | 34089 ft | 427 kts | 280° |
| 2026-04-29 08:18 | 39.14133 | 36.12889 | 34088 ft | 427 kts | 281° |
| 2026-04-29 08:18 | 39.15133 | 36.05373 | 34084 ft | 426 kts | 283° |
| 2026-04-29 08:19 | 39.16626 | 35.98058 | 34082 ft | 425 kts | 288° |
| 2026-04-29 08:19 | 39.18453 | 35.90815 | 34084 ft | 424 kts | 289° |
| 2026-04-29 08:20 | 39.20276 | 35.83602 | 34084 ft | 423 kts | 289° |
| 2026-04-29 08:20 | 39.22084 | 35.76422 | 34078 ft | 423 kts | 289° |
| 2026-04-29 08:21 | 39.23887 | 35.69244 | 34075 ft | 422 kts | 289° |
| 2026-04-29 08:21 | 39.25676 | 35.62094 | 34079 ft | 422 kts | 289° |
| 2026-04-29 08:22 | 39.27468 | 35.54910 | 34082 ft | 421 kts | 289° |
| 2026-04-29 08:22 | 39.29256 | 35.47721 | 34080 ft | 420 kts | 289° |
| 2026-04-29 08:23 | 39.31025 | 35.40583 | 34079 ft | 420 kts | 289° |
| 2026-04-29 08:23 | 39.32798 | 35.33412 | 34078 ft | 419 kts | 289° |
| 2026-04-29 08:24 | 39.34558 | 35.26269 | 34077 ft | 418 kts | 289° |
| 2026-04-29 08:24 | 39.36322 | 35.19096 | 34077 ft | 418 kts | 289° |
| 2026-04-29 08:25 | 39.38069 | 35.11961 | 34076 ft | 417 kts | 289° |
| 2026-04-29 08:25 | 39.39806 | 35.04849 | 34075 ft | 417 kts | 289° |
| 2026-04-29 08:26 | 39.41552 | 34.97683 | 34074 ft | 417 kts | 289° |
| 2026-04-29 08:26 | 39.43275 | 34.90588 | 34073 ft | 416 kts | 289° |
| 2026-04-29 08:27 | 39.44995 | 34.83481 | 34070 ft | 415 kts | 288° |
| 2026-04-29 08:27 | 39.46711 | 34.76367 | 34065 ft | 415 kts | 289° |
| 2026-04-29 08:28 | 39.48423 | 34.69255 | 34069 ft | 414 kts | 289° |
| 2026-04-29 08:28 | 39.50125 | 34.62161 | 34069 ft | 414 kts | 289° |
| 2026-04-29 08:29 | 39.51825 | 34.55055 | 34068 ft | 413 kts | 289° |
| 2026-04-29 08:29 | 39.53513 | 34.47973 | 34068 ft | 413 kts | 289° |
| 2026-04-29 08:30 | 39.56031 | 34.37370 | 34068 ft | 412 kts | 289° |
| 2026-04-29 08:31 | 39.57710 | 34.30275 | 34073 ft | 412 kts | 288° |
| 2026-04-29 08:31 | 39.59385 | 34.23175 | 34069 ft | 411 kts | 288° |
| 2026-04-29 08:32 | 39.61050 | 34.16095 | 34067 ft | 412 kts | 288° |
| 2026-04-29 08:32 | 39.62700 | 34.09053 | 34066 ft | 411 kts | 288° |
| 2026-04-29 08:33 | 39.64361 | 34.01949 | 34062 ft | 410 kts | 288° |
| 2026-04-29 08:33 | 39.66008 | 33.94884 | 34055 ft | 410 kts | 288° |
| 2026-04-29 08:34 | 39.67645 | 33.87838 | 34049 ft | 410 kts | 288° |
| 2026-04-29 08:34 | 39.69277 | 33.80793 | 34052 ft | 409 kts | 288° |
| 2026-04-29 08:35 | 39.70908 | 33.73725 | 34057 ft | 409 kts | 288° |
| 2026-04-29 08:35 | 39.72532 | 33.66666 | 34057 ft | 409 kts | 288° |
| 2026-04-29 08:36 | 39.74148 | 33.59627 | 34056 ft | 408 kts | 288° |
| 2026-04-29 08:36 | 39.75761 | 33.52571 | 34055 ft | 408 kts | 288° |
| 2026-04-29 08:37 | 39.77365 | 33.45536 | 34057 ft | 407 kts | 288° |
| 2026-04-29 08:37 | 39.78973 | 33.38467 | 34056 ft | 407 kts | 288° |
| 2026-04-29 08:38 | 39.80565 | 33.31440 | 34064 ft | 406 kts | 287° |
| 2026-04-29 08:38 | 39.82147 | 33.24436 | 34067 ft | 406 kts | 287° |
| 2026-04-29 08:39 | 39.83729 | 33.17411 | 34069 ft | 406 kts | 287° |
| 2026-04-29 08:39 | 39.85294 | 33.10432 | 34075 ft | 405 kts | 287° |
| 2026-04-29 08:40 | 39.86871 | 33.03386 | 34060 ft | 405 kts | 287° |
| 2026-04-29 08:40 | 39.88442 | 32.96347 | 34055 ft | 406 kts | 287° |
| 2026-04-29 08:41 | 39.90013 | 32.89282 | 34072 ft | 406 kts | 287° |
| 2026-04-29 08:41 | 39.91566 | 32.82271 | 34076 ft | 406 kts | 287° |
| 2026-04-29 08:42 | 39.93124 | 32.75219 | 34073 ft | 405 kts | 287° |
| 2026-04-29 08:42 | 39.94668 | 32.68202 | 34076 ft | 404 kts | 287° |
| 2026-04-29 08:43 | 39.96208 | 32.61182 | 34077 ft | 403 kts | 287° |
| 2026-04-29 08:43 | 39.97740 | 32.54175 | 34074 ft | 403 kts | 287° |
| 2026-04-29 08:44 | 39.99258 | 32.47200 | 34072 ft | 403 kts | 287° |
| 2026-04-29 08:44 | 40.00780 | 32.40188 | 34076 ft | 402 kts | 287° |
| 2026-04-29 08:45 | 40.02248 | 32.33157 | 34074 ft | 402 kts | 285° |
| 2026-04-29 08:45 | 40.03613 | 32.26078 | 34066 ft | 402 kts | 285° |
| 2026-04-29 08:46 | 40.04971 | 32.19025 | 34057 ft | 403 kts | 285° |
| 2026-04-29 08:46 | 40.06333 | 32.11947 | 34066 ft | 403 kts | 285° |
| 2026-04-29 08:47 | 40.07687 | 32.04881 | 34060 ft | 402 kts | 285° |
| 2026-04-29 08:47 | 40.09035 | 31.97831 | 34055 ft | 402 kts | 285° |
| 2026-04-29 08:48 | 40.10386 | 31.90738 | 34060 ft | 401 kts | 285° |
| 2026-04-29 08:48 | 40.11728 | 31.83671 | 33863 ft | 403 kts | 285° |
| 2026-04-29 08:48 | 40.12392 | 31.80172 | 33603 ft | 400 kts | 285° |
| 2026-04-29 08:49 | 40.13058 | 31.76644 | 33333 ft | 398 kts | 285° |
| 2026-04-29 08:49 | 40.13719 | 31.73136 | 33068 ft | 396 kts | 285° |
| 2026-04-29 08:49 | 40.14370 | 31.69684 | 32811 ft | 395 kts | 285° |
| 2026-04-29 08:49 | 40.15025 | 31.66194 | 32544 ft | 395 kts | 286° |
| 2026-04-29 08:50 | 40.15680 | 31.62711 | 32278 ft | 397 kts | 285° |
| 2026-04-29 08:50 | 40.16336 | 31.59204 | 32016 ft | 398 kts | 286° |
| 2026-04-29 08:50 | 40.16992 | 31.55697 | 31751 ft | 399 kts | 286° |
| 2026-04-29 08:50 | 40.17643 | 31.52212 | 31493 ft | 400 kts | 286° |
| 2026-04-29 08:51 | 40.18305 | 31.48664 | 31227 ft | 402 kts | 285° |
| 2026-04-29 08:51 | 40.18966 | 31.45110 | 30965 ft | 402 kts | 286° |
| 2026-04-29 08:51 | 40.19629 | 31.41540 | 30696 ft | 404 kts | 285° |
| 2026-04-29 08:51 | 40.20281 | 31.38021 | 30436 ft | 405 kts | 285° |
| 2026-04-29 08:52 | 40.20947 | 31.34421 | 30167 ft | 406 kts | 285° |
| 2026-04-29 08:52 | 40.21607 | 31.30841 | 29899 ft | 406 kts | 285° |
| 2026-04-29 08:52 | 40.22268 | 31.27259 | 29626 ft | 407 kts | 285° |
| 2026-04-29 08:52 | 40.22932 | 31.23649 | 29355 ft | 408 kts | 285° |
| 2026-04-29 08:53 | 40.23586 | 31.20087 | 29094 ft | 409 kts | 285° |
| 2026-04-29 08:53 | 40.24250 | 31.16463 | 28825 ft | 409 kts | 285° |
| 2026-04-29 08:53 | 40.24910 | 31.12848 | 28556 ft | 410 kts | 285° |
| 2026-04-29 08:53 | 40.25571 | 31.09226 | 28286 ft | 411 kts | 285° |
| 2026-04-29 08:54 | 40.26232 | 31.05601 | 28016 ft | 412 kts | 284° |
| 2026-04-29 08:54 | 40.26895 | 31.01955 | 27751 ft | 413 kts | 284° |
| 2026-04-29 08:54 | 40.27554 | 30.98322 | 27482 ft | 413 kts | 284° |
| 2026-04-29 08:54 | 40.28214 | 30.94669 | 27211 ft | 412 kts | 284° |
| 2026-04-29 08:55 | 40.28815 | 30.91338 | 26966 ft | 411 kts | 284° |
| 2026-04-29 08:55 | 40.29478 | 30.87651 | 26700 ft | 410 kts | 284° |
| 2026-04-29 08:55 | 40.30136 | 30.83986 | 26436 ft | 409 kts | 284° |
| 2026-04-29 08:55 | 40.30786 | 30.80372 | 26167 ft | 407 kts | 284° |
| 2026-04-29 08:56 | 40.31311 | 30.76694 | 25856 ft | 408 kts | 279° |
| 2026-04-29 08:56 | 40.31647 | 30.72977 | 25393 ft | 405 kts | 278° |
| 2026-04-29 08:56 | 40.31941 | 30.69287 | 24931 ft | 402 kts | 277° |
| 2026-04-29 08:56 | 40.32243 | 30.65541 | 24467 ft | 408 kts | 277° |
| 2026-04-29 08:57 | 40.32560 | 30.61740 | 24011 ft | 416 kts | 277° |
| 2026-04-29 08:57 | 40.32883 | 30.57927 | 23548 ft | 415 kts | 277° |
| 2026-04-29 08:57 | 40.33206 | 30.54136 | 23099 ft | 413 kts | 277° |
| 2026-04-29 08:57 | 40.33529 | 30.50367 | 22665 ft | 411 kts | 277° |
| 2026-04-29 08:58 | 40.33847 | 30.46664 | 22225 ft | 410 kts | 277° |
| 2026-04-29 08:58 | 40.34167 | 30.42927 | 21790 ft | 408 kts | 278° |
| 2026-04-29 08:58 | 40.34488 | 30.39183 | 21342 ft | 406 kts | 278° |
| 2026-04-29 08:58 | 40.34801 | 30.35513 | 20905 ft | 404 kts | 278° |
| 2026-04-29 08:59 | 40.35116 | 30.31820 | 20450 ft | 403 kts | 277° |
| 2026-04-29 08:59 | 40.35433 | 30.28105 | 20001 ft | 402 kts | 277° |
| 2026-04-29 08:59 | 40.35744 | 30.24430 | 19557 ft | 401 kts | 277° |
| 2026-04-29 08:59 | 40.36053 | 30.20785 | 19118 ft | 398 kts | 277° |
| 2026-04-29 09:00 | 40.36367 | 30.17072 | 18678 ft | 397 kts | 277° |
| 2026-04-29 09:00 | 40.36671 | 30.13450 | 18249 ft | 396 kts | 277° |
| 2026-04-29 09:00 | 40.36974 | 30.09821 | 17808 ft | 394 kts | 276° |
| 2026-04-29 09:00 | 40.37268 | 30.06279 | 17388 ft | 392 kts | 276° |
| 2026-04-29 09:01 | 40.37568 | 30.02646 | 16985 ft | 390 kts | 277° |
| 2026-04-29 09:01 | 40.37862 | 29.99064 | 16561 ft | 388 kts | 277° |
| 2026-04-29 09:01 | 40.38150 | 29.95543 | 16134 ft | 387 kts | 277° |
| 2026-04-29 09:01 | 40.38441 | 29.91980 | 15677 ft | 385 kts | 277° |
| 2026-04-29 09:02 | 40.38730 | 29.88441 | 15227 ft | 383 kts | 277° |
| 2026-04-29 09:02 | 40.39016 | 29.84924 | 14810 ft | 382 kts | 277° |
| 2026-04-29 09:02 | 40.39297 | 29.81440 | 14379 ft | 380 kts | 277° |
| 2026-04-29 09:02 | 40.39577 | 29.77977 | 13968 ft | 377 kts | 278° |
| 2026-04-29 09:03 | 40.39852 | 29.74550 | 13524 ft | 370 kts | 278° |
| 2026-04-29 09:03 | 40.40122 | 29.71192 | 13190 ft | 361 kts | 278° |
| 2026-04-29 09:03 | 40.40389 | 29.67840 | 12930 ft | 350 kts | 278° |
| 2026-04-29 09:03 | 40.40648 | 29.64585 | 12668 ft | 340 kts | 278° |
| 2026-04-29 09:04 | 40.40893 | 29.61478 | 12406 ft | 330 kts | 278° |
| 2026-04-29 09:04 | 40.41131 | 29.58462 | 12151 ft | 321 kts | 278° |
| 2026-04-29 09:04 | 40.41363 | 29.55506 | 11884 ft | 313 kts | 278° |
| 2026-04-29 09:04 | 40.41589 | 29.52625 | 11637 ft | 305 kts | 278° |
| 2026-04-29 09:05 | 40.41806 | 29.49845 | 11371 ft | 298 kts | 278° |
| 2026-04-29 09:05 | 40.42022 | 29.47080 | 11117 ft | 290 kts | 278° |
| 2026-04-29 09:05 | 40.42227 | 29.44426 | 10840 ft | 284 kts | 278° |
| 2026-04-29 09:05 | 40.42428 | 29.41827 | 10585 ft | 278 kts | 278° |
| 2026-04-29 09:06 | 40.42629 | 29.39241 | 10347 ft | 278 kts | 278° |
| 2026-04-29 09:06 | 40.42832 | 29.36607 | 10085 ft | 278 kts | 278° |
| 2026-04-29 09:06 | 40.43028 | 29.34049 | 9828 ft | 277 kts | 277° |
| 2026-04-29 09:06 | 40.43222 | 29.31522 | 9581 ft | 277 kts | 277° |
| 2026-04-29 09:07 | 40.43413 | 29.29020 | 9354 ft | 276 kts | 278° |
| 2026-04-29 09:07 | 40.43717 | 29.26533 | 9105 ft | 273 kts | 292° |
| 2026-04-29 09:07 | 40.44838 | 29.24563 | 8852 ft | 267 kts | 326° |
| 2026-04-29 09:07 | 40.46504 | 29.23413 | 8655 ft | 268 kts | 335° |
| 2026-04-29 09:08 | 40.48185 | 29.22333 | 8391 ft | 267 kts | 334° |
| 2026-04-29 09:08 | 40.49853 | 29.21209 | 8149 ft | 266 kts | 333° |
| 2026-04-29 09:08 | 40.51476 | 29.20081 | 7909 ft | 265 kts | 332° |
| 2026-04-29 09:08 | 40.53130 | 29.18908 | 7664 ft | 264 kts | 332° |
| 2026-04-29 09:09 | 40.54743 | 29.17752 | 7410 ft | 263 kts | 332° |
| 2026-04-29 09:09 | 40.56345 | 29.16597 | 7158 ft | 262 kts | 332° |
| 2026-04-29 09:09 | 40.57947 | 29.15436 | 6898 ft | 261 kts | 332° |
| 2026-04-29 09:09 | 40.59538 | 29.14279 | 6660 ft | 260 kts | 332° |
| 2026-04-29 09:10 | 40.61157 | 29.13101 | 6394 ft | 258 kts | 333° |
| 2026-04-29 09:10 | 40.62734 | 29.11953 | 6146 ft | 258 kts | 333° |
| 2026-04-29 09:10 | 40.64334 | 29.10787 | 5883 ft | 256 kts | 333° |
| 2026-04-29 09:10 | 40.65924 | 29.09627 | 5626 ft | 250 kts | 333° |
| 2026-04-29 09:11 | 40.67460 | 29.08506 | 5376 ft | 245 kts | 332° |
| 2026-04-29 09:11 | 40.68980 | 29.07398 | 5119 ft | 240 kts | 332° |
| 2026-04-29 09:11 | 40.70461 | 29.06314 | 4862 ft | 235 kts | 332° |
| 2026-04-29 09:11 | 40.71904 | 29.05258 | 4626 ft | 230 kts | 332° |
| 2026-04-29 09:12 | 40.73325 | 29.04218 | 4390 ft | 225 kts | 333° |
| 2026-04-29 09:12 | 40.74728 | 29.03193 | 4159 ft | 221 kts | 334° |
| 2026-04-29 09:12 | 40.76183 | 29.02618 | 3934 ft | 212 kts | 5° |
| 2026-04-29 09:12 | 40.77528 | 29.03241 | 3915 ft | 193 kts | 36° |
| 2026-04-29 09:13 | 40.78518 | 29.04401 | 3911 ft | 183 kts | 48° |
| 2026-04-29 09:13 | 40.79284 | 29.05747 | 3923 ft | 181 kts | 57° |
| 2026-04-29 09:13 | 40.79945 | 29.07228 | 3929 ft | 181 kts | 59° |
| 2026-04-29 09:13 | 40.80540 | 29.08682 | 3839 ft | 175 kts | 61° |
| 2026-04-29 09:14 | 40.81082 | 29.10088 | 3627 ft | 170 kts | 62° |
| 2026-04-29 09:14 | 40.81612 | 29.11502 | 3378 ft | 168 kts | 63° |
| 2026-04-29 09:14 | 40.82112 | 29.12861 | 3169 ft | 158 kts | 63° |
| 2026-04-29 09:14 | 40.82592 | 29.14173 | 2944 ft | 157 kts | 64° |
| 2026-04-29 09:15 | 40.83076 | 29.15498 | 2722 ft | 157 kts | 64° |
| 2026-04-29 09:15 | 40.83542 | 29.16776 | 2484 ft | 147 kts | 63° |
| 2026-04-29 09:15 | 40.83976 | 29.17963 | 2289 ft | 143 kts | 63° |
| 2026-04-29 09:15 | 40.84413 | 29.19159 | 2113 ft | 143 kts | 63° |
| 2026-04-29 09:16 | 40.84842 | 29.20356 | 1936 ft | 142 kts | 64° |
| 2026-04-29 09:16 | 40.85241 | 29.21537 | 1757 ft | 142 kts | 64° |
| 2026-04-29 09:16 | 40.85661 | 29.22733 | 1530 ft | 141 kts | 63° |
| 2026-04-29 09:16 | 40.86087 | 29.23903 | 1278 ft | 141 kts | 66° |
| 2026-04-29 09:17 | 40.86522 | 29.25051 | 1037 ft | 140 kts | 63° |
| 2026-04-29 09:17 | 40.86976 | 29.26209 | 886 ft | 140 kts | 63° |
| 2026-04-29 09:17 | 40.87403 | 29.27363 | 725 ft | 140 kts | 65° |
| 2026-04-29 09:17 | 40.87827 | 29.28525 | 561 ft | 140 kts | 64° |
| 2026-04-29 09:18 | 40.88269 | 29.29690 | 399 ft | 140 kts | 64° |
| 2026-04-29 09:18 | 40.88699 | 29.30821 | 321 ft | 129 kts | 66° |
| 2026-04-29 09:18 | 40.89008 | 29.31699 | 321 ft | 80 kts | 65° |
| 2026-04-29 09:18 | 40.89189 | 29.32163 | 320 ft | 40 kts | 60° |
| 2026-04-29 09:19 | 40.89319 | 29.32377 | 320 ft | 26 kts | 37° |
| 2026-04-29 09:19 | 40.89466 | 29.32479 | 320 ft | 18 kts | 335° |
| 2026-04-29 09:19 | 40.89508 | 29.32371 | 320 ft | 10 kts | 341° |
| 2026-04-29 09:19 | 40.89584 | 29.32354 | 320 ft | 11 kts | 356° |
| 2026-04-29 09:20 | 40.89662 | 29.32327 | 320 ft | 11 kts | 339° |
| 2026-04-29 09:20 | 40.89739 | 29.32284 | 320 ft | 12 kts | 334° |
| 2026-04-29 09:20 | 40.89817 | 29.32233 | 320 ft | 12 kts | 333° |
| 2026-04-29 09:20 | 40.89898 | 29.32181 | 320 ft | 13 kts | 334° |
| 2026-04-29 09:21 | 40.89984 | 29.32128 | 320 ft | 13 kts | 335° |
| 2026-04-29 09:21 | 40.90071 | 29.32078 | 320 ft | 13 kts | 353° |
| 2026-04-29 09:21 | 40.90135 | 29.32159 | 320 ft | 13 kts | 63° |
| 2026-04-29 09:21 | 40.90175 | 29.32275 | 320 ft | 13 kts | 65° |
| 2026-04-29 09:22 | 40.90215 | 29.32392 | 320 ft | 14 kts | 64° |
| 2026-04-29 09:22 | 40.90259 | 29.32510 | 320 ft | 14 kts | 62° |
| 2026-04-29 09:22 | 40.90334 | 29.32572 | 320 ft | 14 kts | 345° |
| 2026-04-29 09:22 | 40.90424 | 29.32522 | 321 ft | 14 kts | 334° |
| 2026-04-29 09:23 | 40.90514 | 29.32465 | 321 ft | 14 kts | 334° |
| 2026-04-29 09:23 | 40.90597 | 29.32389 | 321 ft | 14 kts | 311° |
| 2026-04-29 09:23 | 40.90677 | 29.32305 | 321 ft | 14 kts | 331° |
| 2026-04-29 09:23 | 40.90723 | 29.32205 | 321 ft | 14 kts | 261° |
| 2026-04-29 09:24 | 40.90687 | 29.32083 | 321 ft | 14 kts | 243° |
| 2026-04-29 09:24 | 40.90684 | 29.31988 | 320 ft | 9 kts | 293° |
| 2026-04-29 09:24 | 40.90717 | 29.31940 | 321 ft | 4 kts | 330° |
| 2026-04-29 09:24 | 40.90728 | 29.31931 | 321 ft | 1 kts | 331° |
| 2026-04-29 09:25 | 40.90734 | 29.31928 | 321 ft | 0 kts | 332° |